クライストチャーチ の空港の天気 - METARとTAF

クライストチャーチ国際空港 ( NZCH / CHC ) - ニュージーランド クライストチャーチ
飛行場実況気象(Metar)
観測時間09/18 12:30 NZST (09/18 00:30 UTC)
風向・風速東 3m/s
視程10km以上
天気現象
なし
気温12℃
湿度41%
気圧1027hPa
METARNZCH 180030Z AUTO 10006KT 060V160 9999 NCD 12/M01 Q1027 NOSIG
過去の天気等 Google飛行場航空写真 Wunderground天気予報

過去48時間のMETAR

飛行場予報(TAF)
発表時間: 9/18 11:04 NZST (9/17 23:04 UTC)
予報対象時間: 18日12時 NZST ~ 19日12時 NZST
風向・風速東北東 6m/s
視程10km以上
少しの雲 雲底高度 1220m
18日18時 NZST ~ 18日20時 NZST に徐々に
風向・風速西北西 3m/s
TAF NZCH 172304Z 1800/1900 06012KT 9999 FEW040
BECMG 1806/1808 29005KT